createdAt,value
2022-09-13T00:05:01.674Z,33.2
2022-09-13T00:10:01.857Z,33.5
2022-09-13T00:15:01.687Z,33.4
2022-09-13T00:20:01.590Z,33.6
2022-09-13T00:25:01.551Z,33.8
2022-09-13T00:30:01.702Z,34.3
2022-09-13T00:40:06.770Z,34.5
2022-09-13T00:50:06.688Z,39.6
2022-09-13T00:55:06.868Z,39.8
2022-09-13T01:00:01.505Z,40.2
2022-09-13T01:05:12.158Z,40.4
2022-09-13T01:10:02.804Z,37.9
2022-09-13T01:15:01.662Z,37.4
2022-09-13T01:20:02.588Z,37.6
2022-09-13T01:25:01.730Z,37.4
2022-09-13T01:30:01.568Z,37.3
2022-09-13T01:35:01.554Z,37.6
2022-09-13T01:40:07.233Z,37.6
2022-09-13T01:45:01.725Z,37.2
2022-09-13T01:50:02.404Z,37.4
2022-09-13T01:55:06.489Z,40.1
2022-09-13T02:00:01.558Z,40.1
2022-09-13T02:10:01.786Z,40.0
2022-09-13T02:15:02.666Z,39.6
2022-09-13T02:20:01.859Z,37.2
2022-09-13T02:25:01.661Z,36.9
2022-09-13T02:35:01.469Z,36.4
2022-09-13T02:40:01.677Z,38.9
2022-09-13T02:45:01.658Z,39.3
2022-09-13T02:50:01.374Z,39.1
2022-09-13T03:10:02.148Z,36.8
2022-09-13T03:15:01.663Z,35.9
2022-09-13T03:20:01.557Z,35.3
2022-09-13T03:25:01.615Z,34.9
2022-09-13T03:30:02.831Z,35.0
2022-09-13T03:35:01.630Z,34.8
2022-09-13T03:50:01.789Z,36.8
2022-09-13T03:55:06.601Z,35.4
2022-09-13T04:00:06.255Z,35.0
2022-09-13T04:05:01.123Z,33.9
2022-09-13T04:10:01.273Z,33.2
2022-09-13T04:15:02.203Z,31.7
2022-09-13T04:20:01.019Z,31.2
2022-09-13T04:25:03.149Z,30.6
2022-09-13T04:30:01.189Z,30.8
2022-09-13T04:35:06.102Z,30.9
2022-09-13T04:40:01.358Z,31.3
2022-09-13T04:45:01.582Z,31.1
2022-09-13T04:50:04.259Z,30.9
2022-09-13T04:55:01.241Z,30.6
2022-09-13T05:00:01.055Z,30.4
2022-09-13T05:05:01.318Z,30.3
2022-09-13T05:10:01.610Z,30.4
2022-09-13T05:15:06.291Z,30.4
2022-09-13T05:20:02.096Z,33.6
2022-09-13T05:25:06.274Z,33.4
2022-09-13T05:30:01.148Z,33.1
2022-09-13T05:35:01.058Z,33.1
2022-09-13T05:40:14.338Z,33.4
2022-09-13T05:45:06.074Z,30.2
2022-09-13T05:50:54.117Z,30.8
2022-09-13T05:55:00.977Z,31.1
2022-09-13T06:00:01.254Z,31.6
2022-09-13T06:05:01.171Z,31.4
2022-09-13T06:10:01.149Z,31.5
2022-09-13T06:15:01.072Z,31.7
2022-09-13T06:20:01.251Z,31.9
2022-09-13T06:25:01.228Z,31.7
2022-09-13T06:30:06.060Z,32.2
2022-09-13T06:35:06.216Z,32.7
2022-09-13T06:40:01.228Z,32.7
2022-09-13T06:45:02.147Z,33.0
2022-09-13T06:50:01.434Z,33.7
2022-09-13T06:55:01.263Z,33.5
2022-09-13T07:00:01.054Z,33.4
2022-09-13T07:05:06.440Z,32.9
2022-09-13T07:10:01.334Z,32.8
2022-09-13T07:15:11.276Z,33.4
2022-09-13T07:20:06.007Z,33.5
2022-09-13T07:25:06.054Z,33.2
2022-09-13T07:30:01.059Z,33.6
2022-09-13T07:35:01.511Z,33.3
2022-09-13T07:40:06.230Z,31.9
2022-09-13T07:45:06.138Z,31.8
2022-09-13T07:50:01.175Z,31.8
2022-09-13T07:55:01.285Z,31.8
2022-09-13T08:00:05.988Z,32.3
2022-09-13T08:05:01.057Z,32.9
2022-09-13T08:10:06.140Z,32.7
2022-09-13T08:15:06.496Z,33.0
2022-09-13T08:20:01.079Z,32.9
2022-09-13T08:25:01.406Z,32.3
2022-09-13T08:30:01.163Z,31.8
2022-09-13T08:35:01.143Z,32.0
2022-09-13T08:40:01.234Z,32.3
2022-09-13T08:45:01.197Z,35.0
2022-09-13T08:50:01.099Z,35.8
2022-09-13T09:10:01.897Z,37.6
2022-09-13T09:15:02.037Z,36.8
2022-09-13T09:20:01.585Z,36.6
2022-09-13T09:25:01.974Z,37.1
2022-09-13T09:30:03.127Z,37.3
2022-09-13T09:35:01.845Z,37.8
2022-09-13T09:50:01.371Z,52.6
2022-09-13T09:55:04.677Z,52.6
2022-09-13T10:10:01.897Z,48.2
2022-09-13T10:15:01.820Z,50.4
2022-09-13T10:30:02.393Z,47.0
2022-09-13T10:35:01.966Z,48.5
2022-09-13T10:40:02.259Z,55.2
2022-09-13T10:45:01.974Z,52.0
2022-09-13T10:50:02.099Z,50.6
2022-09-13T10:55:01.988Z,48.4
2022-09-13T11:10:02.144Z,34.2
2022-09-13T11:15:01.835Z,33.9
2022-09-13T11:25:01.698Z,34.1
2022-09-13T11:40:02.678Z,39.4
2022-09-13T12:00:01.368Z,42.0
2022-09-13T12:10:01.197Z,42.0
2022-09-13T12:15:01.320Z,43.6
2022-09-13T12:20:01.382Z,45.4
2022-09-13T12:25:01.219Z,45.8
2022-09-13T12:30:01.085Z,46.1
2022-09-13T13:10:01.376Z,49.2
2022-09-13T13:15:01.244Z,44.9
2022-09-13T13:20:01.055Z,45.1
2022-09-13T13:40:02.093Z,48.2
2022-09-13T13:45:06.666Z,44.9
2022-09-13T13:50:02.587Z,42.7
2022-09-13T13:55:01.751Z,41.0
2022-09-13T14:10:02.269Z,35.4
2022-09-13T14:15:08.071Z,34.0
2022-09-13T14:20:01.910Z,34.9
2022-09-13T14:25:01.898Z,34.7
2022-09-13T14:40:02.039Z,29.8
2022-09-13T14:45:01.390Z,30.0
2022-09-13T14:50:01.354Z,30.1
2022-09-13T14:55:01.397Z,31.4
2022-09-13T15:00:01.443Z,31.1
2022-09-13T15:05:01.663Z,32.0
2022-09-13T15:10:01.288Z,32.0
2022-09-13T15:15:01.551Z,32.5
2022-09-13T15:30:02.184Z,36.6
2022-09-13T15:35:02.136Z,35.9
2022-09-13T15:40:03.420Z,35.5
2022-09-13T15:45:07.098Z,35.2
2022-09-13T15:50:02.173Z,34.9
2022-09-13T15:55:02.076Z,33.9
2022-09-13T16:00:07.207Z,32.9
2022-09-13T16:05:02.213Z,31.8
2022-09-13T16:10:02.462Z,30.8
2022-09-13T16:15:01.991Z,30.0
2022-09-13T16:20:01.918Z,29.6
2022-09-13T16:25:02.054Z,29.6
2022-09-13T16:30:02.093Z,29.6
2022-09-13T16:35:01.961Z,29.5
2022-09-13T16:40:06.832Z,29.6
2022-09-13T16:45:01.894Z,35.4
2022-09-13T16:50:01.960Z,35.7
2022-09-13T16:55:01.889Z,35.9
2022-09-13T17:00:02.106Z,36.0
2022-09-13T17:10:01.961Z,30.1
2022-09-13T17:15:06.975Z,29.6
2022-09-13T17:20:03.103Z,29.4
2022-09-13T17:25:02.209Z,29.4
2022-09-13T17:30:03.354Z,29.4
2022-09-13T17:35:03.017Z,29.2
2022-09-13T17:40:02.182Z,29.0
2022-09-13T17:45:06.858Z,29.2
2022-09-13T17:50:01.928Z,29.0
2022-09-13T17:55:02.101Z,30.2
2022-09-13T18:00:01.928Z,29.7
2022-09-13T18:05:13.832Z,29.7
2022-09-13T18:10:02.059Z,29.5
2022-09-13T18:15:06.642Z,29.4
2022-09-13T18:20:02.854Z,28.2
2022-09-13T18:25:01.961Z,28.7
2022-09-13T18:30:01.835Z,29.2
2022-09-13T18:35:02.140Z,29.4
2022-09-13T18:40:02.298Z,29.8
2022-09-13T18:45:02.020Z,29.0
2022-09-13T18:50:02.002Z,28.8
2022-09-13T18:55:02.096Z,28.4
2022-09-13T19:00:06.428Z,28.3
2022-09-13T19:05:07.382Z,28.2
2022-09-13T19:10:01.803Z,29.0
2022-09-13T19:20:01.764Z,29.7
2022-09-13T19:25:01.835Z,34.2
2022-09-13T19:30:01.887Z,35.2
2022-09-13T19:35:02.520Z,35.2
2022-09-13T19:40:02.002Z,35.3
2022-09-13T19:50:01.945Z,31.7
2022-09-13T19:55:02.188Z,31.6
2022-09-13T20:00:01.796Z,32.4
2022-09-13T20:05:02.153Z,33.2
2022-09-13T20:10:07.021Z,32.9
2022-09-13T20:15:07.884Z,33.0
2022-09-13T20:20:01.752Z,33.3
2022-09-13T20:25:01.935Z,34.4
2022-09-13T20:30:01.878Z,33.6
2022-09-13T20:35:02.182Z,33.6
2022-09-13T20:40:02.018Z,33.0
2022-09-13T20:45:01.915Z,31.9
2022-09-13T20:50:01.862Z,30.8
2022-09-13T20:55:01.853Z,31.0
2022-09-13T21:00:06.797Z,31.6
2022-09-13T21:05:01.803Z,31.8
2022-09-13T21:10:02.098Z,33.6
2022-09-13T21:15:06.888Z,34.5
2022-09-13T21:20:02.769Z,36.2
2022-09-13T21:25:01.826Z,35.6
2022-09-13T21:35:01.929Z,34.3
2022-09-13T21:40:01.970Z,33.4
2022-09-13T21:55:01.773Z,33.4
2022-09-13T22:00:01.639Z,33.9
2022-09-13T22:05:01.718Z,36.4
2022-09-13T22:10:02.079Z,37.9
2022-09-13T22:20:02.883Z,39.6
2022-09-13T22:25:01.793Z,38.0
2022-09-13T22:35:01.823Z,33.0
2022-09-13T22:40:07.399Z,31.3
2022-09-13T22:50:06.802Z,35.0
2022-09-13T22:55:01.922Z,35.9
2022-09-13T23:00:06.720Z,37.9
2022-09-13T23:10:01.872Z,39.9
2022-09-13T23:20:01.664Z,36.0
2022-09-13T23:25:02.195Z,34.8
2022-09-13T23:40:02.395Z,35.6
2022-09-13T23:50:01.920Z,38.6
2022-09-13T23:55:01.679Z,40.2
